Time;durP1;ratioP1;P1;durP2;ratioP2;P2;SDS_P1;SDS_P2;PMS_P1;PMS_P2;Temp;Humidity;BMP_temperature;BMP_pressure;BME280_temperature;BME280_humidity;BME280_pressure;Samples;Min_cycle;Max_cycle;Signal;HPM_P1;HPM_P2
2021/04/18 00:00:19;;;;;;;9.82;6.18;;;;;;;5.82;62.43;98195.78;5037493;28;45672;-85
2021/04/18 00:02:48;;;;;;;9.23;6.15;;;;;;;6.00;58.53;98189.94;5037396;28;45255;-85
2021/04/18 00:05:20;;;;;;;8.05;6.07;;;;;;;6.15;57.56;98190.47;5021946;28;45527;-85
2021/04/18 00:07:46;;;;;;;8.95;6.07;;;;;;;6.02;61.03;98189.81;5037801;28;45278;-86
2021/04/18 00:10:12;;;;;;;9.50;6.18;;;;;;;6.01;58.81;98186.34;5037414;28;45567;-84
2021/04/18 00:12:37;;;;;;;9.80;6.03;;;;;;;5.82;59.08;98187.88;5049507;28;45507;-85
2021/04/18 00:15:06;;;;;;;8.05;5.82;;;;;;;5.69;61.11;98184.53;5042658;28;45302;-85
2021/04/18 00:17:31;;;;;;;8.32;5.82;;;;;;;5.72;61.06;98186.09;5045814;28;45495;-85
2021/04/18 00:19:57;;;;;;;8.68;6.40;;;;;;;5.73;63.13;98185.13;5025726;28;45384;-84
2021/04/18 00:22:22;;;;;;;8.73;6.15;;;;;;;5.63;60.25;98185.91;5041097;28;45392;-83
2021/04/18 00:24:48;;;;;;;9.98;6.57;;;;;;;5.73;61.22;98190.41;5040660;28;45443;-85
2021/04/18 00:27:13;;;;;;;9.70;6.55;;;;;;;5.72;61.16;98181.66;5041147;28;45288;-85
2021/04/18 00:29:38;;;;;;;9.98;6.40;;;;;;;5.80;59.72;98181.88;5040760;28;45502;-84
2021/04/18 00:32:04;;;;;;;9.45;6.80;;;;;;;5.78;61.15;98188.22;5040532;28;45386;-85
2021/04/18 00:34:30;;;;;;;9.80;5.90;;;;;;;5.60;62.81;98180.88;5040811;28;45491;-84
2021/04/18 00:36:55;;;;;;;8.52;6.68;;;;;;;5.39;64.44;98188.72;5040896;28;45268;-84
2021/04/18 00:39:21;;;;;;;9.57;6.72;;;;;;;5.50;61.82;98185.22;5040397;28;45552;-84
2021/04/18 00:41:46;;;;;;;9.60;6.20;;;;;;;5.55;61.47;98188.34;5022653;28;48074;-85
2021/04/18 00:44:12;;;;;;;9.82;6.80;;;;;;;5.55;63.58;98188.34;5040632;28;45451;-84
2021/04/18 00:46:39;;;;;;;8.93;6.18;;;;;;;5.25;64.53;98195.97;5045908;28;45173;-85
2021/04/18 00:49:05;;;;;;;8.88;6.03;;;;;;;5.06;65.06;98190.50;5040576;28;46540;-85
2021/04/18 00:51:31;;;;;;;10.88;6.38;;;;;;;5.03;65.05;98188.09;5045946;28;46037;-84
2021/04/18 00:53:56;;;;;;;13.02;6.90;;;;;;;5.05;63.07;98183.56;5048052;28;45402;-84
2021/04/18 00:56:22;;;;;;;8.60;6.13;;;;;;;4.99;63.38;98187.50;5040205;28;45369;-84
2021/04/18 00:58:48;;;;;;;9.05;6.38;;;;;;;4.99;63.90;98187.50;5031652;28;45523;-84
2021/04/18 01:01:13;;;;;;;8.77;6.07;;;;;;;4.91;65.06;98192.53;5039812;28;45456;-84
2021/04/18 01:03:38;;;;;;;10.05;6.78;;;;;;;4.92;63.80;98192.44;5040248;28;45231;-84
2021/04/18 01:06:04;;;;;;;9.57;6.28;;;;;;;4.85;62.69;98190.41;5035636;28;45349;-84
2021/04/18 01:08:30;;;;;;;9.70;6.60;;;;;;;4.83;64.97;98185.22;5031396;28;45371;-84
2021/04/18 01:10:56;;;;;;;11.13;6.75;;;;;;;4.85;63.95;98191.22;5053351;28;45298;-84
2021/04/18 01:13:22;;;;;;;10.10;6.65;;;;;;;4.78;65.69;98185.59;5058665;28;45294;-84
2021/04/18 01:15:47;;;;;;;10.00;6.95;;;;;;;4.71;66.45;98179.16;5045267;28;45448;-85
2021/04/18 01:18:12;;;;;;;10.95;7.43;;;;;;;4.75;65.75;98185.00;5046902;28;45229;-84
2021/04/18 01:20:38;;;;;;;9.57;6.68;;;;;;;4.61;67.17;98186.91;5038670;28;46220;-84
2021/04/18 01:23:03;;;;;;;9.90;6.57;;;;;;;4.52;66.00;98185.84;5037609;28;45369;-84
2021/04/18 01:25:29;;;;;;;10.13;6.65;;;;;;;4.58;66.63;98189.78;5038932;28;45378;-84
2021/04/18 01:27:56;;;;;;;8.57;6.50;;;;;;;4.62;66.90;98190.41;5039092;28;45422;-84
2021/04/18 01:30:25;;;;;;;9.85;6.88;;;;;;;4.57;67.80;98193.38;5037816;28;45346;-84
2021/04/18 01:32:54;;;;;;;11.40;7.28;;;;;;;4.61;66.95;98186.91;5038866;28;45222;-83
2021/04/18 01:35:20;;;;;;;9.35;6.57;;;;;;;4.70;66.30;98189.78;5039002;28;45354;-85
2021/04/18 01:37:46;;;;;;;9.07;6.53;;;;;;;4.58;67.08;98189.78;5031905;28;45505;-84
2021/04/18 01:40:14;;;;;;;10.70;7.28;;;;;;;4.68;65.28;98190.75;5051391;28;45307;-85
2021/04/18 01:42:40;;;;;;;10.48;6.97;;;;;;;4.79;64.48;98191.69;5038410;28;45225;-84
2021/04/18 01:45:07;;;;;;;10.50;7.50;;;;;;;4.72;65.41;98187.88;5038287;28;45420;-85
2021/04/18 01:47:33;;;;;;;11.00;7.60;;;;;;;4.61;67.58;98186.91;5052894;28;45512;-84
2021/04/18 01:49:58;;;;;;;9.35;7.03;;;;;;;4.61;67.04;98194.81;5052195;28;46246;-85
2021/04/18 01:52:24;;;;;;;12.13;7.30;;;;;;;4.89;64.09;98197.09;5038425;28;45439;-85
2021/04/18 01:54:49;;;;;;;10.27;7.05;;;;;;;4.81;64.66;98193.28;5038340;28;45420;-84
2021/04/18 01:57:15;;;;;;;10.63;7.40;;;;;;;4.40;67.50;98186.78;5038361;28;45321;-84
2021/04/18 01:59:40;;;;;;;10.98;7.43;;;;;;;4.28;68.60;98198.25;5038208;28;45626;-83
2021/04/18 02:02:11;;;;;;;11.05;8.02;;;;;;;4.70;66.63;98193.28;5038046;28;45321;-83
2021/04/18 02:04:36;;;;;;;11.40;7.63;;;;;;;4.35;68.31;98200.31;5023225;28;45256;-84
2021/04/18 02:07:03;;;;;;;11.35;7.22;;;;;;;4.58;65.72;98202.97;5038033;28;45577;-84
2021/04/18 02:09:30;;;;;;;10.45;7.47;;;;;;;4.36;67.81;98201.16;5038023;28;45420;-83
2021/04/18 02:12:00;;;;;;;10.48;7.53;;;;;;;4.36;67.18;98201.16;5017700;28;730019;-84
2021/04/18 02:14:26;;;;;;;10.13;7.00;;;;;;;4.31;67.63;98198.88;5038056;28;45257;-84
2021/04/18 02:16:52;;;;;;;12.88;8.02;;;;;;;4.25;67.57;98201.97;5039179;28;45574;-84
2021/04/18 02:19:18;;;;;;;11.45;7.75;;;;;;;4.11;68.47;98210.91;5021230;28;47066;-84
2021/04/18 02:21:44;;;;;;;13.25;8.52;;;;;;;4.33;67.59;98201.38;5033512;28;45303;-84
2021/04/18 02:24:10;;;;;;;10.98;7.53;;;;;;;4.12;68.43;98203.88;5039303;28;45317;-82
2021/04/18 02:26:35;;;;;;;12.38;7.65;;;;;;;4.12;68.91;98204.69;5038893;28;45506;-83
2021/04/18 02:29:01;;;;;;;10.75;7.72;;;;;;;4.07;69.63;98196.31;5039164;28;45418;-83
2021/04/18 02:31:26;;;;;;;11.27;7.50;;;;;;;4.01;69.43;98200.25;5035371;28;45403;-84
2021/04/18 02:33:51;;;;;;;11.55;8.18;;;;;;;4.31;66.38;98209.41;5050166;28;45349;-84
2021/04/18 02:36:17;;;;;;;12.30;7.88;;;;;;;4.25;67.14;98209.88;5038762;28;45556;-84
2021/04/18 02:38:42;;;;;;;12.45;8.02;;;;;;;4.29;66.55;98211.31;5038844;28;46495;-84
2021/04/18 02:41:08;;;;;;;12.25;7.57;;;;;;;4.12;68.15;98220.50;5035638;28;45736;-84
2021/04/18 02:43:33;;;;;;;13.45;8.27;;;;;;;4.01;68.57;98212.56;5049077;28;45180;-84
2021/04/18 02:45:59;;;;;;;10.60;7.60;;;;;;;4.24;67.08;98213.47;5038523;28;45795;-84
2021/04/18 02:48:24;;;;;;;11.32;7.88;;;;;;;3.97;68.50;98217.22;5060407;28;45487;-84
2021/04/18 02:50:50;;;;;;;11.95;8.27;;;;;;;4.09;67.67;98212.81;5045138;28;45274;-83
2021/04/18 02:53:15;;;;;;;11.75;7.90;;;;;;;3.90;70.36;98218.63;5038943;28;45252;-84
2021/04/18 02:55:41;;;;;;;11.60;8.07;;;;;;;3.94;69.24;98222.69;5038408;28;45552;-84
2021/04/18 02:58:06;;;;;;;11.18;7.95;;;;;;;4.20;67.54;98210.22;5037096;28;47325;-84
2021/04/18 03:00:32;;;;;;;11.52;8.13;;;;;;;4.00;68.01;98226.69;5038212;28;45367;-83
2021/04/18 03:02:57;;;;;;;11.80;8.52;;;;;;;4.12;67.94;98224.94;5038823;28;45158;-84
2021/04/18 03:05:23;;;;;;;13.07;8.25;;;;;;;4.17;68.58;98226.25;5051747;28;45617;-83
2021/04/18 03:07:48;;;;;;;12.77;8.43;;;;;;;4.17;67.58;98235.94;5038364;28;45310;-84
2021/04/18 03:10:14;;;;;;;11.70;8.60;;;;;;;4.09;68.42;98240.00;5038130;28;45368;-83
2021/04/18 03:12:40;;;;;;;12.10;9.02;;;;;;;3.86;68.64;98236.44;5051518;28;45262;-84
2021/04/18 03:15:07;;;;;;;11.90;8.23;;;;;;;4.03;68.46;98239.59;5043636;28;45564;-83
2021/04/18 03:17:33;;;;;;;13.25;8.98;;;;;;;4.37;66.19;98232.63;5046422;28;45223;-83
2021/04/18 03:19:58;;;;;;;13.20;8.52;;;;;;;3.95;69.39;98232.28;5043410;28;45331;-83
2021/04/18 03:22:24;;;;;;;11.32;8.05;;;;;;;3.65;70.43;98239.72;5038484;28;45292;-84
2021/04/18 03:24:50;;;;;;;11.25;8.10;;;;;;;3.61;71.21;98246.16;5032905;28;45254;-83
2021/04/18 03:27:16;;;;;;;11.27;8.02;;;;;;;3.53;71.57;98243.22;5049852;28;45314;-84
2021/04/18 03:29:41;;;;;;;12.23;9.07;;;;;;;3.64;69.96;98245.06;5037768;28;45303;-83
2021/04/18 03:32:07;;;;;;;13.32;8.60;;;;;;;3.46;69.79;98245.47;5038186;28;45382;-83
2021/04/18 03:34:32;;;;;;;14.18;9.15;;;;;;;3.42;71.42;98237.88;5038024;28;45294;-84
2021/04/18 03:36:58;;;;;;;15.32;9.20;;;;;;;3.35;72.87;98234.88;5037903;28;45401;-84
2021/04/18 03:39:23;;;;;;;15.40;9.50;;;;;;;3.38;72.24;98233.81;5037571;28;45418;-84
2021/04/18 03:41:48;;;;;;;13.88;8.80;;;;;;;3.50;71.17;98236.41;5038203;28;45283;-84
2021/04/18 03:44:14;;;;;;;15.10;9.23;;;;;;;3.61;70.70;98234.78;5037742;28;45421;-84
2021/04/18 03:46:39;;;;;;;14.90;9.30;;;;;;;3.57;71.33;98230.69;5043107;28;45564;-84
2021/04/18 03:49:05;;;;;;;12.35;8.18;;;;;;;3.98;68.68;98234.72;5059393;28;45364;-84
2021/04/18 03:51:30;;;;;;;13.38;8.73;;;;;;;3.69;70.41;98232.41;5038729;28;45439;-84
2021/04/18 03:53:56;;;;;;;12.38;8.48;;;;;;;3.48;71.82;98237.44;5037691;28;45243;-83
2021/04/18 03:56:21;;;;;;;13.70;9.35;;;;;;;3.50;71.71;98235.53;5037273;28;45366;-84
2021/04/18 03:58:47;;;;;;;14.63;9.43;;;;;;;3.49;72.13;98229.47;5037566;28;45584;-84
2021/04/18 04:01:12;;;;;;;14.18;8.68;;;;;;;3.49;72.93;98237.34;5037362;28;45361;-84
2021/04/18 04:03:38;;;;;;;13.00;8.55;;;;;;;3.96;69.62;98230.50;5037502;28;45479;-84
2021/04/18 04:06:05;;;;;;;11.63;8.52;;;;;;;3.76;70.47;98230.19;5050757;28;45233;-82
2021/04/18 04:08:30;;;;;;;15.65;8.98;;;;;;;3.96;69.41;98233.94;5037454;28;45421;-84
2021/04/18 04:10:56;;;;;;;13.77;9.80;;;;;;;3.82;70.84;98236.78;5037651;28;45248;-84
2021/04/18 04:13:21;;;;;;;12.45;8.68;;;;;;;3.53;71.66;98240.56;5056311;28;45406;-84
2021/04/18 04:15:47;;;;;;;12.82;9.20;;;;;;;3.79;69.95;98236.03;5037336;28;46057;-84
2021/04/18 04:18:12;;;;;;;13.48;9.05;;;;;;;3.50;71.65;98235.53;5050455;28;45459;-84
2021/04/18 04:20:37;;;;;;;15.82;9.90;;;;;;;3.31;71.55;98242.13;5037906;28;45256;-84
2021/04/18 04:23:03;;;;;;;13.43;9.55;;;;;;;3.33;73.98;98240.25;5037554;28;45264;-84
2021/04/18 04:25:29;;;;;;;17.05;10.02;;;;;;;3.46;72.74;98250.72;5037125;28;45400;-84
2021/04/18 04:27:55;;;;;;;16.25;10.35;;;;;;;3.54;71.81;98252.81;5037551;28;45373;-84
2021/04/18 04:30:21;;;;;;;16.42;10.27;;;;;;;3.47;71.51;98252.41;5037134;28;45513;-84
2021/04/18 04:32:47;;;;;;;14.30;9.48;;;;;;;3.74;70.45;98253.97;5037273;28;45397;-84
2021/04/18 04:35:13;;;;;;;14.48;10.07;;;;;;;3.70;71.87;98257.78;5037260;28;45340;-84
2021/04/18 04:37:38;;;;;;;14.23;9.85;;;;;;;3.80;71.70;98252.69;5037037;28;45227;-83
2021/04/18 04:40:04;;;;;;;14.82;9.52;;;;;;;4.17;69.18;98262.28;5037317;28;45435;-84
2021/04/18 04:42:30;;;;;;;15.32;10.07;;;;;;;3.94;72.44;98256.91;5037168;28;45420;-84
2021/04/18 04:44:55;;;;;;;13.02;9.15;;;;;;;4.17;69.67;98257.00;5036808;28;45176;-84
2021/04/18 04:47:21;;;;;;;14.45;9.30;;;;;;;4.19;71.11;98265.63;5048805;28;45213;-84
2021/04/18 04:49:46;;;;;;;14.73;9.60;;;;;;;4.18;72.47;98269.22;5035557;28;45344;-85
2021/04/18 04:52:12;;;;;;;13.82;9.60;;;;;;;3.95;73.77;98277.00;5037173;28;45555;-85
2021/04/18 04:54:37;;;;;;;13.48;9.40;;;;;;;3.99;73.21;98277.63;5037130;28;46818;-85
2021/04/18 04:57:04;;;;;;;14.77;10.18;;;;;;;4.37;70.90;98281.81;5045294;28;45295;-83
2021/04/18 04:59:29;;;;;;;13.90;9.23;;;;;;;4.70;69.99;98282.00;5036894;28;45337;-83
2021/04/18 05:01:54;;;;;;;14.32;9.68;;;;;;;4.61;71.12;98288.84;5018666;28;45320;-83
2021/04/18 05:04:20;;;;;;;14.20;9.75;;;;;;;4.36;72.22;98291.53;5032422;28;45992;-83
2021/04/18 05:06:45;;;;;;;12.75;9.30;;;;;;;4.71;70.49;98286.31;5026670;28;45514;-83
2021/04/18 05:09:11;;;;;;;14.35;10.10;;;;;;;4.64;68.29;98284.16;5043473;28;45368;-83
2021/04/18 05:11:36;;;;;;;13.68;9.02;;;;;;;4.45;69.40;98287.38;5027205;28;45418;-84
2021/04/18 05:14:02;;;;;;;13.88;9.68;;;;;;;4.56;68.75;98289.16;5039577;28;46105;-84
2021/04/18 05:16:27;;;;;;;14.05;9.32;;;;;;;4.36;68.61;98293.31;5039723;28;45338;-83
2021/04/18 05:18:52;;;;;;;14.75;9.20;;;;;;;4.44;69.56;98303.28;5034717;28;45359;-83
2021/04/18 05:21:18;;;;;;;12.38;8.60;;;;;;;4.82;68.56;98299.50;5044658;28;45288;-83
2021/04/18 05:23:43;;;;;;;12.73;8.20;;;;;;;5.08;68.25;98301.94;5047456;28;45231;-83
2021/04/18 05:26:09;;;;;;;11.85;8.55;;;;;;;5.18;69.20;98307.31;5039289;28;45429;-83
2021/04/18 05:28:34;;;;;;;13.63;9.05;;;;;;;5.41;67.19;98302.84;5039707;28;45376;-83
2021/04/18 05:31:00;;;;;;;13.02;9.13;;;;;;;5.25;67.50;98303.22;5044871;28;45439;-83
2021/04/18 05:33:26;;;;;;;12.68;9.23;;;;;;;5.32;68.84;98306.22;5046864;28;45207;-83
2021/04/18 05:35:52;;;;;;;13.20;9.32;;;;;;;5.38;68.46;98300.47;5039263;28;45228;-83
2021/04/18 05:38:18;;;;;;;12.45;8.88;;;;;;;5.51;66.93;98305.63;5039026;28;45250;-86
2021/04/18 05:40:44;;;;;;;12.88;9.32;;;;;;;5.25;66.54;98308.50;5052693;28;45576;-84
2021/04/18 05:43:10;;;;;;;11.70;8.93;;;;;;;5.23;67.71;98315.69;5039199;28;45860;-83
2021/04/18 05:45:35;;;;;;;12.75;8.80;;;;;;;5.11;65.71;98306.97;5038797;28;45428;-84
2021/04/18 05:48:01;;;;;;;12.95;9.45;;;;;;;5.33;67.96;98310.53;5057839;28;45393;-83
2021/04/18 05:50:26;;;;;;;14.15;9.50;;;;;;;5.28;65.00;98312.72;5045737;28;45468;-84
2021/04/18 05:52:52;;;;;;;13.43;9.25;;;;;;;5.46;64.53;98305.97;5038173;28;45935;-85
2021/04/18 05:55:17;;;;;;;13.95;9.30;;;;;;;5.47;66.88;98307.66;5020766;28;45407;-86
2021/04/18 05:57:43;;;;;;;12.38;8.90;;;;;;;5.55;65.92;98317.59;5045083;28;45376;-80
2021/04/18 06:00:09;;;;;;;15.05;10.32;;;;;;;5.81;66.82;98312.03;5038464;28;45336;-80
2021/04/18 06:02:34;;;;;;;23.20;13.95;;;;;;;5.67;68.00;98315.75;5038630;28;45289;-79
2021/04/18 06:04:59;;;;;;;36.92;21.25;;;;;;;5.53;68.87;98309.78;5049003;28;45456;-79
2021/04/18 06:07:25;;;;;;;43.72;24.77;;;;;;;5.51;68.68;98316.16;5039723;28;45354;-79
2021/04/18 06:09:50;;;;;;;44.17;24.67;;;;;;;5.68;67.69;98318.28;5038639;28;45600;-80
2021/04/18 06:12:16;;;;;;;40.75;22.73;;;;;;;5.77;68.69;98311.44;5040705;28;46085;-81
2021/04/18 06:14:41;;;;;;;29.20;18.33;;;;;;;5.80;68.15;98311.19;5038383;28;45363;-80
2021/04/18 06:17:07;;;;;;;29.75;18.35;;;;;;;5.65;68.85;98315.03;5037135;28;45491;-79
2021/04/18 06:19:32;;;;;;;22.40;14.10;;;;;;;5.83;67.87;98308.31;5038681;28;45561;-79
2021/04/18 06:21:59;;;;;;;20.27;13.57;;;;;;;5.85;67.71;98316.09;5040763;28;45992;-81
2021/04/18 06:24:24;;;;;;;19.55;12.43;;;;;;;5.83;68.73;98312.72;5049779;28;45311;-83
2021/04/18 06:26:50;;;;;;;15.05;11.23;;;;;;;5.69;68.86;98324.38;5038656;28;45346;-81
2021/04/18 06:29:15;;;;;;;17.33;12.60;;;;;;;5.72;69.65;98328.59;5040197;28;45770;-83
2021/04/18 06:31:41;;;;;;;15.65;11.30;;;;;;;5.75;69.05;98320.44;5046801;28;45414;-85
2021/04/18 06:34:06;;;;;;;17.88;12.85;;;;;;;5.90;69.43;98318.38;5054196;28;45479;-85
2021/04/18 06:36:32;;;;;;;16.63;12.77;;;;;;;5.92;68.64;98319.91;5038454;28;45388;-86
2021/04/18 06:38:58;;;;;;;17.45;13.38;;;;;;;6.06;68.20;98323.25;5039138;28;45383;-84
2021/04/18 06:41:24;;;;;;;15.73;11.45;;;;;;;6.18;66.19;98326.69;5037927;28;45849;-84
2021/04/18 06:43:51;;;;;;;17.65;12.95;;;;;;;6.17;67.95;98327.66;5039324;28;45417;-83
2021/04/18 06:46:18;;;;;;;18.42;13.32;;;;;;;6.20;67.94;98317.69;5040443;28;45304;-83
2021/04/18 06:48:48;;;;;;;18.80;12.93;;;;;;;6.17;67.15;98328.47;5052092;28;45262;-85
2021/04/18 06:51:20;;;;;;;18.13;12.98;;;;;;;6.38;65.46;98332.97;5045974;28;45159;-84
2021/04/18 06:53:49;;;;;;;16.85;11.43;;;;;;;6.41;64.86;98336.19;5034753;28;45592;-86
2021/04/18 06:56:15;;;;;;;16.13;11.68;;;;;;;6.56;63.48;98336.72;5052056;28;45467;-85
2021/04/18 06:58:40;;;;;;;18.02;12.38;;;;;;;6.56;63.09;98336.72;5046726;28;45221;-87
2021/04/18 07:01:06;;;;;;;17.20;11.60;;;;;;;6.53;64.50;98334.34;5049297;28;45274;-83
2021/04/18 07:03:32;;;;;;;17.73;12.10;;;;;;;6.41;63.77;98338.00;5041097;28;45488;-80
2021/04/18 07:05:58;;;;;;;17.67;10.35;;;;;;;6.36;63.12;98337.56;5029669;28;45491;-84
2021/04/18 07:08:28;;;;;;;14.38;9.93;;;;;;;6.22;61.85;98336.03;5032246;28;45625;-86
2021/04/18 07:11:15;;;;;;;14.63;10.45;;;;;;;6.30;63.36;98338.06;5039697;28;45401;-85
2021/04/18 07:13:43;;;;;;;13.25;10.05;;;;;;;6.59;61.89;98334.78;5066559;28;45475;-83
2021/04/18 07:16:32;;;;;;;13.40;9.63;;;;;;;6.72;61.82;98324.88;5041797;28;45534;-83
2021/04/18 07:18:58;;;;;;;14.18;10.20;;;;;;;6.72;61.72;98327.50;5044468;28;45596;-83
2021/04/18 07:21:24;;;;;;;14.48;9.80;;;;;;;6.67;62.55;98330.56;5039327;28;45581;-83
2021/04/18 07:24:04;;;;;;;14.45;10.95;;;;;;;6.78;61.20;98328.81;5041280;28;45475;-85
2021/04/18 07:26:29;;;;;;;14.95;10.07;;;;;;;6.59;62.15;98319.75;5053896;28;45519;-84
2021/04/18 07:29:15;;;;;;;14.57;10.18;;;;;;;6.59;61.10;98322.41;5039676;28;45486;-84
2021/04/18 07:31:41;;;;;;;14.38;10.65;;;;;;;6.33;61.70;98325.44;5036974;28;45499;-83
2021/04/18 07:34:15;;;;;;;15.95;10.90;;;;;;;6.79;61.77;98317.25;5045799;28;45499;-83
2021/04/18 07:36:43;;;;;;;15.18;10.18;;;;;;;6.55;61.10;98323.63;5047165;28;45277;-85
2021/04/18 07:39:12;;;;;;;14.70;11.00;;;;;;;6.97;59.42;98318.34;5025468;28;45688;-79
2021/04/18 07:41:41;;;;;;;15.23;10.93;;;;;;;7.10;60.84;98318.13;5048260;28;46105;-81
2021/04/18 07:44:08;;;;;;;17.73;10.77;;;;;;;7.19;60.81;98315.66;5041190;28;46054;-80
2021/04/18 07:46:34;;;;;;;12.57;9.38;;;;;;;7.55;58.90;98319.56;5045785;28;45506;-80
2021/04/18 07:49:00;;;;;;;16.27;11.27;;;;;;;7.27;59.17;98314.00;5052214;28;45430;-80
2021/04/18 07:51:26;;;;;;;14.50;10.60;;;;;;;7.45;61.16;98310.72;5050122;28;45520;-80
2021/04/18 07:53:52;;;;;;;20.05;14.50;;;;;;;7.32;59.60;98308.31;5044931;28;45631;-80
2021/04/18 07:56:17;;;;;;;18.25;12.10;;;;;;;7.30;60.16;98302.34;5024027;28;45307;-79
2021/04/18 07:58:45;;;;;;;18.27;12.85;;;;;;;7.27;60.18;98302.59;5020087;28;45572;-80
2021/04/18 08:01:11;;;;;;;18.83;13.05;;;;;;;7.52;61.34;98309.22;5036636;28;46051;-80
2021/04/18 08:03:39;;;;;;;19.08;13.60;;;;;;;8.08;61.72;98299.00;5028812;28;46116;-80
2021/04/18 08:06:05;;;;;;;20.40;12.25;;;;;;;8.72;56.10;98306.50;5030463;28;45402;-80
2021/04/18 08:08:45;;;;;;;18.67;12.85;;;;;;;8.86;56.37;98294.63;5040365;28;45334;-80
2021/04/18 08:11:12;;;;;;;15.23;11.25;;;;;;;9.46;54.36;98294.22;5046956;28;46149;-81
2021/04/18 08:13:39;;;;;;;13.38;9.85;;;;;;;9.80;51.05;98297.28;5066793;28;45440;-79
2021/04/18 08:16:05;;;;;;;13.57;9.57;;;;;;;9.57;51.16;98302.97;5027596;28;45521;-80
2021/04/18 08:18:44;;;;;;;13.88;9.70;;;;;;;9.25;53.20;98294.47;5038178;28;45452;-80
2021/04/18 08:21:30;;;;;;;15.38;10.75;;;;;;;9.63;52.37;98289.97;5038713;28;45514;-80
2021/04/18 08:23:57;;;;;;;13.73;9.55;;;;;;;9.95;51.90;98285.13;5050031;28;45481;-80
2021/04/18 08:26:24;;;;;;;15.25;10.52;;;;;;;10.61;50.02;98299.03;5047022;28;45581;-81
2021/04/18 08:28:55;;;;;;;15.10;9.43;;;;;;;11.27;48.39;98295.91;5036659;28;45401;-82
2021/04/18 08:31:29;;;;;;;14.05;9.65;;;;;;;11.41;50.19;98290.97;5055581;28;46082;-80
2021/04/18 08:34:00;;;;;;;13.75;9.55;;;;;;;11.71;46.69;98291.41;5038123;28;45743;-81
2021/04/18 08:36:31;;;;;;;12.07;9.40;;;;;;;12.57;40.98;98293.88;5036732;28;45960;-80
2021/04/18 08:39:05;;;;;;;61.28;12.57;;;;;;;13.26;39.92;98288.06;5038306;28;45548;-81
2021/04/18 08:41:38;;;;;;;11.95;9.02;;;;;;;14.07;38.52;98285.16;5030212;28;47178;-80
2021/04/18 08:44:23;;;;;;;13.18;9.95;;;;;;;14.23;38.80;98276.19;5046505;28;47002;-81
2021/04/18 08:46:59;;;;;;;12.77;9.10;;;;;;;16.06;35.43;98267.03;5055713;28;45358;-80
2021/04/18 08:49:38;;;;;;;13.65;9.60;;;;;;;16.04;35.32;98271.75;5059513;28;45251;-80
2021/04/18 08:52:06;;;;;;;12.60;9.55;;;;;;;17.18;34.39;98277.22;5059189;28;45405;-82
2021/04/18 08:54:35;;;;;;;13.65;9.05;;;;;;;17.29;32.47;98267.78;5030556;28;45465;-82
2021/04/18 08:57:04;;;;;;;13.43;9.52;;;;;;;16.07;35.70;98268.69;5032208;28;45563;-83
2021/04/18 08:59:30;;;;;;;13.43;9.35;;;;;;;16.92;34.18;98270.63;5019918;28;45676;-82
2021/04/18 09:01:58;;;;;;;14.30;10.65;;;;;;;17.78;34.18;98268.59;5039371;28;46350;-83
2021/04/18 09:04:24;;;;;;;13.27;10.27;;;;;;;18.28;33.61;98265.63;5040661;28;45739;-87
2021/04/18 09:06:50;;;;;;;13.15;10.05;;;;;;;18.46;31.49;98264.19;5051769;28;45418;-82
2021/04/18 09:09:17;;;;;;;13.02;11.10;;;;;;;18.00;32.03;98257.69;5043430;28;45449;-82
2021/04/18 09:11:46;;;;;;;13.55;10.32;;;;;;;18.78;33.00;98258.97;5043802;28;45471;-84
2021/04/18 09:14:14;;;;;;;14.40;11.25;;;;;;;19.37;32.87;98264.47;5059378;28;45451;-84
2021/04/18 09:16:40;;;;;;;13.20;10.77;;;;;;;18.55;31.02;98256.69;5049931;28;45459;-81
2021/04/18 09:19:22;;;;;;;12.80;10.38;;;;;;;18.01;31.29;98265.56;5042230;28;45353;-83
2021/04/18 09:22:08;;;;;;;11.80;10.15;;;;;;;19.03;33.28;98259.19;5040499;28;45466;-81
2021/04/18 09:24:45;;;;;;;19.90;10.20;;;;;;;20.81;30.27;98252.41;5048709;28;45263;-81
2021/04/18 09:27:18;;;;;;;12.82;10.60;;;;;;;20.60;28.38;98248.19;5041671;28;45330;-82
2021/04/18 09:29:53;;;;;;;11.65;9.73;;;;;;;19.37;27.94;98253.69;5039313;28;45360;-83
2021/04/18 09:32:29;;;;;;;12.13;9.98;;;;;;;18.93;29.22;98251.47;5021511;28;47208;-86
2021/04/18 09:34:56;;;;;;;12.23;9.65;;;;;;;19.61;31.53;98248.63;5039278;28;45447;-80
2021/04/18 09:37:21;;;;;;;11.98;10.13;;;;;;;19.87;28.51;98252.19;5039477;28;45547;-81
2021/04/18 09:39:52;;;;;;;10.15;8.98;;;;;;;20.05;31.65;98246.13;5039097;28;45538;-83
2021/04/18 09:42:19;;;;;;;13.00;10.07;;;;;;;19.85;31.14;98244.34;5040061;28;45204;-82
2021/04/18 09:44:46;;;;;;;13.75;9.82;;;;;;;20.28;30.23;98240.16;5038749;28;45416;-79
2021/04/18 09:47:19;;;;;;;11.05;9.75;;;;;;;20.18;28.60;98237.94;5049771;28;45424;-84
2021/04/18 09:49:53;;;;;;;11.93;9.60;;;;;;;19.79;30.96;98234.41;5054104;28;45558;-85
2021/04/18 09:52:31;;;;;;;11.73;9.20;;;;;;;18.85;27.93;98242.81;5030102;28;47198;-84
2021/04/18 09:55:13;;;;;;;12.02;9.60;;;;;;;19.67;29.55;98232.41;5037624;28;45378;-87
2021/04/18 09:57:53;;;;;;;12.45;9.40;;;;;;;19.58;29.04;98241.78;5039824;28;45389;-86
2021/04/18 10:00:21;;;;;;;10.65;8.98;;;;;;;18.95;30.37;98240.50;5038757;28;45303;-85
2021/04/18 10:03:08;;;;;;;11.55;9.95;;;;;;;18.15;29.15;98239.50;5023004;28;47261;-83
2021/04/18 10:05:53;;;;;;;10.32;8.25;;;;;;;18.26;30.07;98240.78;5041577;28;45632;-80
2021/04/18 10:08:22;;;;;;;10.07;8.98;;;;;;;17.74;29.70;98227.81;5024809;28;45255;-80
2021/04/18 10:10:50;;;;;;;11.00;9.35;;;;;;;16.78;30.74;98235.59;5038851;28;45331;-85
2021/04/18 10:13:36;;;;;;;11.68;9.23;;;;;;;15.63;31.88;98232.94;5056415;28;46196;-82
2021/04/18 10:16:06;;;;;;;12.60;9.77;;;;;;;15.66;32.46;98229.88;5051409;28;45281;-83
2021/04/18 10:18:33;;;;;;;11.77;10.27;;;;;;;15.40;34.34;98231.19;5042203;28;45427;-83
2021/04/18 10:21:34;;;;;;;13.25;9.68;;;;;;;15.43;34.28;98230.81;5048773;28;45402;-81
2021/04/18 10:24:00;;;;;;;13.20;9.43;;;;;;;15.76;32.82;98226.88;4960711;28;46505;-80
2021/04/18 10:26:25;;;;;;;11.10;8.82;;;;;;;16.54;32.74;98212.75;5040054;28;45396;-85
2021/04/18 10:28:54;;;;;;;11.85;10.02;;;;;;;16.39;31.50;98209.34;5058620;28;45302;-86
2021/04/18 10:31:22;;;;;;;12.70;9.68;;;;;;;16.35;32.54;98211.56;5050372;28;45600;-83
2021/04/18 10:33:48;;;;;;;11.00;9.43;;;;;;;16.36;32.69;98207.03;5049834;28;45444;-87
2021/04/18 10:36:14;;;;;;;11.50;9.18;;;;;;;17.06;32.99;98204.41;5039135;28;45521;-82
2021/04/18 10:38:40;;;;;;;12.05;8.88;;;;;;;17.39;32.11;98209.09;5038364;28;45383;-81
2021/04/18 10:41:07;;;;;;;10.32;8.95;;;;;;;17.38;31.06;98199.38;5038076;28;45405;-83
2021/04/18 10:43:33;;;;;;;9.88;7.82;;;;;;;17.63;32.04;98193.47;5038149;28;45520;-83
2021/04/18 10:45:59;;;;;;;10.57;8.77;;;;;;;17.60;33.44;98192.00;5031144;28;45281;-82
2021/04/18 10:48:24;;;;;;;12.43;8.90;;;;;;;16.90;28.92;98187.56;5059779;28;45301;-84
2021/04/18 10:50:50;;;;;;;11.38;8.90;;;;;;;15.71;30.70;98187.25;5044648;28;45473;-83
2021/04/18 10:53:15;;;;;;;11.25;9.35;;;;;;;15.02;31.98;98184.00;5038176;28;45407;-84
2021/04/18 10:55:42;;;;;;;10.00;8.40;;;;;;;15.32;32.25;98189.28;5037922;28;45483;-84
2021/04/18 10:58:08;;;;;;;10.45;8.63;;;;;;;15.30;32.70;98188.66;5039170;28;45467;-81
2021/04/18 11:00:34;;;;;;;10.98;8.60;;;;;;;15.81;32.98;98180.72;5037587;28;45450;-85
2021/04/18 11:02:59;;;;;;;10.23;8.27;;;;;;;16.57;32.39;98172.09;5046688;28;45358;-82
2021/04/18 11:05:25;;;;;;;10.85;7.70;;;;;;;17.40;32.32;98161.53;5029079;28;46100;-84
2021/04/18 11:07:50;;;;;;;11.27;7.80;;;;;;;17.43;30.70;98163.81;5047545;28;45389;-86
2021/04/18 11:10:16;;;;;;;12.48;8.25;;;;;;;15.91;31.49;98170.53;5048667;28;45602;-86
2021/04/18 11:12:42;;;;;;;11.25;8.70;;;;;;;16.24;33.09;98164.63;5049597;28;46139;-85
2021/04/18 11:15:10;;;;;;;11.18;8.18;;;;;;;16.58;32.71;98157.66;5039431;28;45462;-86
2021/04/18 11:17:37;;;;;;;9.73;7.20;;;;;;;16.16;32.98;98162.91;5038916;28;45488;-86
2021/04/18 11:20:05;;;;;;;9.70;8.18;;;;;;;15.80;33.28;98162.97;5054174;28;45542;-86
2021/04/18 11:22:31;;;;;;;10.30;8.00;;;;;;;15.86;33.00;98160.34;5047551;28;45416;-85
2021/04/18 11:24:59;;;;;;;10.23;7.82;;;;;;;15.78;33.30;98162.34;5052678;28;45424;-85
2021/04/18 11:27:25;;;;;;;9.13;7.80;;;;;;;15.70;33.24;98161.44;5038856;28;45306;-86
2021/04/18 11:29:50;;;;;;;11.30;7.90;;;;;;;15.62;32.87;98161.59;5038412;28;45295;-85